sensor_id;sensor_type;location;lat;lon;timestamp;temperature;humidity
45311;SHT31;68264;51.540;5.854;2023-12-14T00:08:58;7.6;92.4
45311;SHT31;68264;51.540;5.854;2023-12-14T00:22:57;7.6;92.4
45311;SHT31;68264;51.540;5.854;2023-12-14T00:37:25;7.2;92.6
45311;SHT31;68264;51.540;5.854;2023-12-14T00:51:44;7.1;93.1
45311;SHT31;68264;51.540;5.854;2023-12-14T01:06:12;7.1;92.9
45311;SHT31;68264;51.540;5.854;2023-12-14T01:20:32;7.0;93.1
45311;SHT31;68264;51.540;5.854;2023-12-14T01:35:32;6.9;92.9
45311;SHT31;68264;51.540;5.854;2023-12-14T01:50:31;7.0;92.6
45311;SHT31;68264;51.540;5.854;2023-12-14T02:04:31;6.9;92.6
45311;SHT31;68264;51.540;5.854;2023-12-14T02:32:29;6.6;92.9
45311;SHT31;68264;51.540;5.854;2023-12-14T02:46:28;6.5;93.2
45311;SHT31;68264;51.540;5.854;2023-12-14T03:00:27;6.4;93.3
45311;SHT31;68264;51.540;5.854;2023-12-14T03:14:26;6.2;93.7
45311;SHT31;68264;51.540;5.854;2023-12-14T03:29:58;6.2;93.8
45311;SHT31;68264;51.540;5.854;2023-12-14T03:45:28;6.2;93.2
45311;SHT31;68264;51.540;5.854;2023-12-14T04:00:28;6.2;92.8
45311;SHT31;68264;51.540;5.854;2023-12-14T04:16:29;6.3;92.2
45311;SHT31;68264;51.540;5.854;2023-12-14T04:31:29;6.3;91.4
45311;SHT31;68264;51.540;5.854;2023-12-14T04:45:28;6.3;91.2
45311;SHT31;68264;51.540;5.854;2023-12-14T04:59:27;6.3;91.2
45311;SHT31;68264;51.540;5.854;2023-12-14T05:13:55;6.3;90.9
45311;SHT31;68264;51.540;5.854;2023-12-14T05:28:14;6.2;90.6
45311;SHT31;68264;51.540;5.854;2023-12-14T05:42:42;6.3;90.5
45311;SHT31;68264;51.540;5.854;2023-12-14T05:57:31;6.2;90.0
45311;SHT31;68264;51.540;5.854;2023-12-14T06:12:19;6.2;89.9
45311;SHT31;68264;51.540;5.854;2023-12-14T06:27:07;6.2;90.1
45311;SHT31;68264;51.540;5.854;2023-12-14T06:41:26;6.1;89.6
45311;SHT31;68264;51.540;5.854;2023-12-14T06:55:25;6.1;89.2
45311;SHT31;68264;51.540;5.854;2023-12-14T07:09:24;6.2;89.3
45311;SHT31;68264;51.540;5.854;2023-12-14T07:23:23;6.2;89.4
45311;SHT31;68264;51.540;5.854;2023-12-14T07:37:51;6.2;89.7
45311;SHT31;68264;51.540;5.854;2023-12-14T07:53:12;6.2;89.5
45311;SHT31;68264;51.540;5.854;2023-12-14T08:09:13;6.2;89.0
45311;SHT31;68264;51.540;5.854;2023-12-14T08:24:12;6.1;88.6
45311;SHT31;68264;51.540;5.854;2023-12-14T08:38:11;6.1;89.0
45311;SHT31;68264;51.540;5.854;2023-12-14T08:52:10;6.1;89.1
45311;SHT31;68264;51.540;5.854;2023-12-14T09:06:10;6.1;89.4
45311;SHT31;68264;51.540;5.854;2023-12-14T09:20:38;6.0;89.3
45311;SHT31;68264;51.540;5.854;2023-12-14T09:34:57;6.0;88.6
45311;SHT31;68264;51.540;5.854;2023-12-14T09:48:56;5.7;88.6
45311;SHT31;68264;51.540;5.854;2023-12-14T10:02:55;5.6;89.3
45311;SHT31;68264;51.540;5.854;2023-12-14T10:16:54;5.6;88.8
45311;SHT31;68264;51.540;5.854;2023-12-14T10:30:53;5.7;88.4
45311;SHT31;68264;51.540;5.854;2023-12-14T10:44:52;5.7;88.3
45311;SHT31;68264;51.540;5.854;2023-12-14T10:59:20;5.9;87.7
45311;SHT31;68264;51.540;5.854;2023-12-14T11:13:39;5.9;86.2
45311;SHT31;68264;51.540;5.854;2023-12-14T11:28:07;6.0;86.2
45311;SHT31;68264;51.540;5.854;2023-12-14T11:42:56;6.0;86.4
45311;SHT31;68264;51.540;5.854;2023-12-14T11:57:15;5.9;86.4
45311;SHT31;68264;51.540;5.854;2023-12-14T12:11:14;5.9;85.2
45311;SHT31;68264;51.540;5.854;2023-12-14T12:25:13;5.7;85.2
45311;SHT31;68264;51.540;5.854;2023-12-14T12:40:45;6.0;84.7
45311;SHT31;68264;51.540;5.854;2023-12-14T12:56:15;6.3;83.5
45311;SHT31;68264;51.540;5.854;2023-12-14T13:10:43;6.2;83.3
45311;SHT31;68264;51.540;5.854;2023-12-14T13:25:32;5.7;84.6
45311;SHT31;68264;51.540;5.854;2023-12-14T13:39:51;5.9;84.4
45311;SHT31;68264;51.540;5.854;2023-12-14T13:53:50;6.0;84.1
45311;SHT31;68264;51.540;5.854;2023-12-14T14:07:49;5.9;85.5
45311;SHT31;68264;51.540;5.854;2023-12-14T14:21:48;5.8;85.9
45311;SHT31;68264;51.540;5.854;2023-12-14T14:35:47;5.8;85.9
45311;SHT31;68264;51.540;5.854;2023-12-14T14:49:46;5.8;85.9
45311;SHT31;68264;51.540;5.854;2023-12-14T15:04:14;5.8;86.4
45311;SHT31;68264;51.540;5.854;2023-12-14T15:19:34;5.8;86.6
45311;SHT31;68264;51.540;5.854;2023-12-14T15:34:34;5.7;87.5
45311;SHT31;68264;51.540;5.854;2023-12-14T15:48:33;5.8;87.5
45311;SHT31;68264;51.540;5.854;2023-12-14T16:03:33;5.9;87.4
45311;SHT31;68264;51.540;5.854;2023-12-14T16:18:33;5.8;87.2
45311;SHT31;68264;51.540;5.854;2023-12-14T16:33:33;6.0;87.3
45311;SHT31;68264;51.540;5.854;2023-12-14T16:48:33;5.9;87.2
45311;SHT31;68264;51.540;5.854;2023-12-14T17:02:32;6.0;87.4
45311;SHT31;68264;51.540;5.854;2023-12-14T17:16:31;5.8;88.2
45311;SHT31;68264;51.540;5.854;2023-12-14T17:31:31;5.8;88.1
45311;SHT31;68264;51.540;5.854;2023-12-14T17:47:00;5.8;88.7
45311;SHT31;68264;51.540;5.854;2023-12-14T18:01:19;5.8;88.6
45311;SHT31;68264;51.540;5.854;2023-12-14T18:15:18;5.7;89.1
45311;SHT31;68264;51.540;5.854;2023-12-14T18:29:46;5.6;90.0
45311;SHT31;68264;51.540;5.854;2023-12-14T18:44:06;5.6;90.4
45311;SHT31;68264;51.540;5.854;2023-12-14T18:58:34;5.6;91.0
45311;SHT31;68264;51.540;5.854;2023-12-14T19:13:22;5.7;91.4
45311;SHT31;68264;51.540;5.854;2023-12-14T19:27:41;5.7;91.8
45311;SHT31;68264;51.540;5.854;2023-12-14T19:41:40;5.6;92.7
45311;SHT31;68264;51.540;5.854;2023-12-14T19:57:13;5.7;92.8
45311;SHT31;68264;51.540;5.854;2023-12-14T20:12:42;5.7;93.4
45311;SHT31;68264;51.540;5.854;2023-12-14T20:26:41;5.7;93.5
45311;SHT31;68264;51.540;5.854;2023-12-14T20:40:41;5.6;93.6
45311;SHT31;68264;51.540;5.854;2023-12-14T20:54:40;5.6;94.0
45311;SHT31;68264;51.540;5.854;2023-12-14T21:08:39;5.6;94.5
45311;SHT31;68264;51.540;5.854;2023-12-14T21:22:38;5.7;94.8
45311;SHT31;68264;51.540;5.854;2023-12-14T21:38:42;5.7;94.6
45311;SHT31;68264;51.540;5.854;2023-12-14T21:54:42;5.6;95.0
45311;SHT31;68264;51.540;5.854;2023-12-14T22:08:41;5.7;94.9
45311;SHT31;68264;51.540;5.854;2023-12-14T22:23:09;5.8;94.5
45311;SHT31;68264;51.540;5.854;2023-12-14T22:37:28;5.9;93.8
45311;SHT31;68264;51.540;5.854;2023-12-14T22:51:27;6.0;93.5
45311;SHT31;68264;51.540;5.854;2023-12-14T23:05:26;6.1;93.3
45311;SHT31;68264;51.540;5.854;2023-12-14T23:19:26;6.1;93.2
45311;SHT31;68264;51.540;5.854;2023-12-14T23:33:54;6.0;92.8
45311;SHT31;68264;51.540;5.854;2023-12-14T23:49:14;6.1;92.7
